Airfield :
LOGIN :

Register | Disclaimer

   EN    FR    IT 

 










Legend :    VFR   Marginal VFR   IFR   Intensive IFR   Very Intensive IFR
Visi :
Ceiling :
>= 8 km
>= 3000ft
5 to 8 km
1000 to 3000 ft
1500m to 5 km
500 to 1000 ft
800 to 1500m
200 to 500 ft
< 800m
< 200 ft
Symbols :   Thunderstorms  Fog  Heavy snow  Heavy precipitations  Wind > 20 kt
SIGMETs :     Misc.  Thunderstorms  Icing  Turbulence  Mountain Waves  Volcanic Ashes







- Airport Elevation : 290 ft
- IATA code : LAI
- Download approach charts


LFRO - Lannion

CURRENT METAR :
  • 131600Z AUTO 10008KT 060V140 CAVOK 03/01 Q1010 TEMPO 13015G25KT 4000 RA BKN008 SCT025TCU

EXPIRED METARs :
  • 131530Z AUTO 10010KT CAVOK 03/01 Q1010 TEMPO 13015G25KT 4000 RA BKN008 SCT025TCU
  • 131500Z AUTO 11012KT CAVOK 03/00 Q1009 TEMPO 13015G25KT 4000 RA BKN008 SCT025TCU
  • 131430Z AUTO 11010KT CAVOK 03/01 Q1009 TEMPO 13015G25KT 4000 RA BKN008 SCT025TCU
  • 131400Z AUTO 11012KT CAVOK 03/01 Q1008 TEMPO 13015G25KT 4000 RA BKN008 SCT025TCU

TAF TAF LFRO
Valid from the 13 at 12:00 until the 14 at 12:00 UTC


131100Z 1312/1412 11013KT 9999 SCT012 BKN030
TEMPO 1312/1318 13015G25KT 4000 RA BKN008 SCT025TCU
BECMG 1315/1318 08010KT
BECMG 1409/1412 BKN012
No reported NOTAMs for that airfield.
1 SIGMET reported for the Brest FIR (LFRR) :
 
Severe turbulence
LFRR SIGMET 3 VALID 131600/132000 LFPW
LFRR BREST FIR/UIR SEV TURB FCST WI N4830 W00800 - N4900 W00800 - N4930 W00530 - N4400 W00400 - N4445 W00730 - N4830 W00800 FL200/360 MOV E 15KT NC=



MET'MAP, your aeronautical weather chart ! - Copyright ORBIFLY December 2007 - Disclaimer

ORBIFLY MET'MAP TEAM :

Programming & Development : Alexandra Zaïnal
Concept & Development : Baudouin d'Aumeries
Co-Development & Prog : Marc-Olivier Méhu
Technical & hardware support : Manuel Goepfert

Contact : metmap@orbifly.com




SOURCES & CREDITS :

   NOAA